createdAt,value
2019-01-08T00:00:03.844Z,100837.70
2019-01-08T00:02:35.109Z,100828.89
2019-01-08T00:05:04.679Z,100835.92
2019-01-08T00:07:34.175Z,100831.59
2019-01-08T00:10:03.683Z,100822.66
2019-01-08T00:12:33.155Z,100813.55
2019-01-08T00:15:02.640Z,100825.97
2019-01-08T00:17:32.126Z,100821.25
2019-01-08T00:20:01.595Z,100815.98
2019-01-08T00:22:31.059Z,100820.02
2019-01-08T00:25:00.549Z,100818.93
2019-01-08T00:27:30.026Z,100813.70
2019-01-08T00:29:59.505Z,100814.05
2019-01-08T00:32:29.006Z,100817.06
2019-01-08T00:34:58.481Z,100812.79
2019-01-08T00:37:27.954Z,100812.05
2019-01-08T00:39:57.430Z,100810.98
2019-01-08T00:42:26.911Z,100806.55
2019-01-08T00:44:56.407Z,100807.64
2019-01-08T00:47:25.898Z,100805.34
2019-01-08T00:49:55.484Z,100802.77
2019-01-08T00:52:24.987Z,100796.52
2019-01-08T00:54:54.479Z,100793.63
2019-01-08T00:57:23.979Z,100788.53
2019-01-08T00:59:53.455Z,100781.28
2019-01-08T01:02:22.966Z,100770.19
2019-01-08T01:04:52.472Z,100769.74
2019-01-08T01:07:21.979Z,100768.94
2019-01-08T01:09:51.454Z,100760.23
2019-01-08T01:12:20.949Z,100771.45
2019-01-08T01:14:50.475Z,100766.09
2019-01-08T01:17:19.957Z,100764.64
2019-01-08T01:19:49.469Z,100758.48
2019-01-08T01:22:18.958Z,100754.20
2019-01-08T01:24:48.439Z,100758.18
2019-01-08T01:27:17.951Z,100736.78
2019-01-08T01:29:47.444Z,100739.33
2019-01-08T01:32:16.951Z,100735.72
2019-01-08T01:34:46.433Z,100738.21
2019-01-08T01:37:15.911Z,100730.69
2019-01-08T01:39:45.400Z,100728.84
2019-01-08T01:42:14.935Z,100721.88
2019-01-08T01:44:44.423Z,100712.12
2019-01-08T01:47:13.930Z,100709.47
2019-01-08T01:49:43.394Z,100702.14
2019-01-08T01:52:12.869Z,100703.88
2019-01-08T01:54:42.392Z,100695.14
2019-01-08T01:57:11.876Z,100700.19
2019-01-08T01:59:41.347Z,100701.61
2019-01-08T02:02:10.822Z,100704.34
2019-01-08T02:04:40.356Z,100704.34
2019-01-08T02:07:09.855Z,100696.15
2019-01-08T02:09:39.320Z,100703.57
2019-01-08T02:12:08.821Z,100697.81
2019-01-08T02:14:38.679Z,100695.43
2019-01-08T02:17:08.191Z,100690.83
2019-01-08T02:19:37.687Z,100690.20
2019-01-08T02:22:07.177Z,100682.13
2019-01-08T02:24:36.654Z,100670.55
2019-01-08T02:27:06.137Z,100676.62
2019-01-08T02:29:35.610Z,100674.28
2019-01-08T02:32:05.100Z,100671.20
2019-01-08T02:34:34.582Z,100658.25
2019-01-08T02:37:04.061Z,100663.50
2019-01-08T02:39:33.526Z,100651.42
2019-01-08T02:42:03.159Z,100640.28
2019-01-08T02:44:32.700Z,100640.50
2019-01-08T02:47:02.219Z,100633.91
2019-01-08T02:49:31.681Z,100631.88
2019-01-08T02:52:01.160Z,100625.50
2019-01-08T02:54:30.630Z,100619.17
2019-01-08T02:57:00.104Z,100603.11
2019-01-08T02:59:29.573Z,100592.20
2019-01-08T03:01:59.113Z,100581.66
2019-01-08T03:04:28.544Z,100584.42
2019-01-08T03:06:58.062Z,100584.12
2019-01-08T03:09:27.549Z,100573.47
2019-01-08T03:11:57.116Z,100571.72
2019-01-08T03:14:26.610Z,100572.84
2019-01-08T03:16:56.082Z,100558.36
2019-01-08T03:19:25.551Z,100551.02
2019-01-08T03:21:55.017Z,100546.72
2019-01-08T03:24:24.509Z,100543.31
2019-01-08T03:26:54.205Z,100532.83
2019-01-08T03:29:23.675Z,100529.20
2019-01-08T03:31:53.152Z,100521.08
2019-01-08T03:34:22.637Z,100507.67
2019-01-08T03:36:52.114Z,100507.34
2019-01-08T03:39:21.600Z,100482.14
2019-01-08T03:41:51.060Z,100482.14
2019-01-08T03:44:20.545Z,100488.39
2019-01-08T03:46:50.025Z,100477.81
2019-01-08T03:49:19.507Z,100463.21
2019-01-08T03:51:48.992Z,100459.75
2019-01-08T03:54:18.478Z,100457.03
2019-01-08T03:56:47.949Z,100435.50
2019-01-08T03:59:17.449Z,100422.11
2019-01-08T04:01:46.917Z,100440.52
2019-01-08T04:04:16.428Z,100428.80
2019-01-08T04:06:45.899Z,100440.68
2019-01-08T04:09:15.390Z,100428.13
2019-01-08T04:11:44.861Z,100425.67
2019-01-08T04:14:14.517Z,100424.11
2019-01-08T04:16:44.008Z,100431.39
2019-01-08T04:19:13.482Z,100409.53
2019-01-08T04:21:44.024Z,100408.95
2019-01-08T04:24:13.522Z,100401.73
2019-01-08T04:26:43.010Z,100407.91
2019-01-08T04:29:12.519Z,100422.80
2019-01-08T04:31:42.006Z,100421.58
2019-01-08T04:34:11.498Z,100415.57
2019-01-08T04:36:40.970Z,100401.08
2019-01-08T04:39:10.464Z,100390.30
2019-01-08T04:41:39.925Z,100381.06
2019-01-08T04:44:09.411Z,100380.90
2019-01-08T04:46:38.890Z,100372.86
2019-01-08T04:49:08.371Z,100370.59
2019-01-08T04:51:37.997Z,100355.71
2019-01-08T04:54:07.425Z,100352.39
2019-01-08T04:56:36.897Z,100352.19
2019-01-08T04:59:06.874Z,100337.86
2019-01-08T05:01:36.358Z,100336.14
2019-01-08T05:04:05.869Z,100337.34
2019-01-08T05:06:35.353Z,100333.23
2019-01-08T05:09:06.017Z,100314.02
2019-01-08T05:11:35.497Z,100312.89
2019-01-08T05:14:05.008Z,100314.25
2019-01-08T05:16:34.517Z,100306.57
2019-01-08T05:19:04.007Z,100310.56
2019-01-08T05:21:33.472Z,100307.36
2019-01-08T05:24:02.975Z,100292.15
2019-01-08T05:26:32.446Z,100280.87
2019-01-08T05:29:01.977Z,100290.48
2019-01-08T05:31:31.438Z,100292.23
2019-01-08T05:34:00.938Z,100281.50
2019-01-08T05:36:30.412Z,100273.02
2019-01-08T05:38:59.876Z,100268.95
2019-01-08T05:41:29.344Z,100271.95
2019-01-08T05:43:58.824Z,100265.31
2019-01-08T05:46:28.309Z,100269.80
2019-01-08T05:48:57.799Z,100252.32
2019-01-08T05:51:27.321Z,100262.89
2019-01-08T05:53:56.779Z,100259.64
2019-01-08T05:56:26.254Z,100249.58
2019-01-08T05:58:55.730Z,100237.44
2019-01-08T06:01:25.201Z,100248.35
2019-01-08T06:03:54.837Z,100246.52
2019-01-08T06:06:24.369Z,100237.77
2019-01-08T06:08:53.906Z,100234.33
2019-01-08T06:11:23.377Z,100228.42
2019-01-08T06:13:52.851Z,100230.68
2019-01-08T06:16:22.331Z,100223.78
2019-01-08T06:18:52.261Z,100225.40
2019-01-08T06:21:21.736Z,100214.95
2019-01-08T06:23:51.218Z,100211.00
2019-01-08T06:26:20.689Z,100218.19
2019-01-08T06:28:50.168Z,100203.62
2019-01-08T06:31:19.664Z,100207.97
2019-01-08T06:33:49.118Z,100206.34
2019-01-08T06:36:18.598Z,100191.17
2019-01-08T06:38:48.066Z,100195.80
2019-01-08T06:41:17.552Z,100194.89
2019-01-08T06:43:47.021Z,100191.18
2019-01-08T06:46:16.502Z,100179.55
2019-01-08T06:48:45.956Z,100184.89
2019-01-08T06:51:15.448Z,100186.66
2019-01-08T06:53:44.928Z,100185.84
2019-01-08T06:56:14.749Z,100189.34
2019-01-08T06:58:44.266Z,100191.94
2019-01-08T07:01:13.737Z,100175.43
2019-01-08T07:03:43.203Z,100174.88
2019-01-08T07:06:12.677Z,100173.00
2019-01-08T07:08:42.155Z,100173.20
2019-01-08T07:11:11.655Z,100170.89
2019-01-08T07:13:41.136Z,100162.55
2019-01-08T07:16:10.631Z,100155.20
2019-01-08T07:18:40.153Z,100156.59
2019-01-08T07:21:09.594Z,100155.39
2019-01-08T07:23:39.095Z,100158.07
2019-01-08T07:26:08.554Z,100156.00
2019-01-08T07:28:38.038Z,100143.67
2019-01-08T07:31:07.515Z,100131.79
2019-01-08T07:33:37.010Z,100127.03
2019-01-08T07:36:06.489Z,100119.24
2019-01-08T07:38:36.008Z,100120.22
2019-01-08T07:41:05.509Z,100113.30
2019-01-08T07:43:34.997Z,100117.73
2019-01-08T07:46:04.493Z,100100.05
2019-01-08T07:48:33.999Z,100119.00
2019-01-08T07:51:03.495Z,100113.61
2019-01-08T07:53:32.980Z,100120.72
2019-01-08T07:56:02.476Z,100120.78
2019-01-08T07:58:31.939Z,100099.88
2019-01-08T08:01:01.399Z,100110.33
2019-01-08T08:03:30.872Z,100127.48
2019-01-08T08:06:00.342Z,100095.27
2019-01-08T08:08:29.812Z,100102.76
2019-01-08T08:10:59.286Z,100095.24
2019-01-08T08:13:28.882Z,100086.10
2019-01-08T08:15:58.383Z,100091.03
2019-01-08T08:18:27.837Z,100081.20
2019-01-08T08:20:57.305Z,100076.98
2019-01-08T08:23:26.804Z,100066.58
2019-01-08T08:25:56.303Z,100081.16
2019-01-08T08:28:25.803Z,100081.24
2019-01-08T08:30:58.923Z,100074.45
2019-01-08T08:33:27.477Z,100071.90
2019-01-08T08:35:56.966Z,100059.12
2019-01-08T08:38:26.491Z,100056.41
2019-01-08T08:40:56.057Z,100060.25
2019-01-08T08:43:25.551Z,100078.77
2019-01-08T08:45:55.053Z,100064.80
2019-01-08T08:48:24.553Z,100064.80
2019-01-08T08:50:54.129Z,100053.90
2019-01-08T08:53:23.635Z,100041.77
2019-01-08T08:55:53.113Z,100049.89
2019-01-08T08:58:22.583Z,100047.52
2019-01-08T09:00:52.064Z,100039.29
2019-01-08T09:03:21.550Z,100043.75
2019-01-08T09:05:51.039Z,100042.99
2019-01-08T09:08:21.307Z,100032.45
2019-01-08T09:10:50.860Z,100029.04
2019-01-08T09:13:20.358Z,100014.94
2019-01-08T09:15:49.838Z,100027.27
2019-01-08T09:18:19.321Z,100029.50
2019-01-08T09:20:48.804Z,100037.16
2019-01-08T09:23:18.314Z,100050.16
2019-01-08T09:25:47.791Z,100054.22
2019-01-08T09:28:17.313Z,100047.97
2019-01-08T09:30:46.781Z,100045.02
2019-01-08T09:33:16.318Z,100041.22
2019-01-08T09:35:45.807Z,100037.78
2019-01-08T09:38:15.286Z,100059.19
2019-01-08T09:40:44.861Z,100044.32
2019-01-08T09:43:14.442Z,100051.86
2019-01-08T09:45:43.921Z,100062.11
2019-01-08T09:48:13.385Z,100062.84
2019-01-08T09:50:42.862Z,100054.71
2019-01-08T09:53:12.347Z,100063.84
2019-01-08T09:55:41.874Z,100055.58
2019-01-08T09:58:11.369Z,100061.47
2019-01-08T10:00:40.881Z,100057.91
2019-01-08T10:03:10.386Z,100044.31
2019-01-08T10:05:39.904Z,100055.31
2019-01-08T10:08:09.415Z,100053.55
2019-01-08T10:10:38.906Z,100049.47
2019-01-08T10:13:08.397Z,99994.17
2019-01-08T10:15:37.909Z,100057.28
2019-01-08T10:18:07.408Z,100056.99
2019-01-08T10:20:36.938Z,100049.80
2019-01-08T10:23:10.159Z,100052.33
2019-01-08T10:25:37.673Z,100056.44
2019-01-08T10:28:07.182Z,100054.52
2019-01-08T10:30:36.695Z,100047.66
2019-01-08T10:33:06.176Z,100066.80
2019-01-08T10:35:35.676Z,100058.77
2019-01-08T10:38:05.169Z,100053.02
2019-01-08T10:40:34.684Z,100029.02
2019-01-08T10:43:04.218Z,100030.63
2019-01-08T10:45:34.584Z,100032.65
2019-01-08T10:48:04.083Z,100024.31
2019-01-08T10:50:33.566Z,100025.89
2019-01-08T10:53:03.052Z,100027.02
2019-01-08T10:55:32.561Z,100025.09
2019-01-08T10:58:02.034Z,100025.05
2019-01-08T11:00:31.567Z,100027.84
2019-01-08T11:03:01.062Z,100018.06
2019-01-08T11:05:31.598Z,100027.63
2019-01-08T11:08:01.089Z,100029.77
2019-01-08T11:10:30.582Z,100021.80
2019-01-08T11:13:00.078Z,100023.11
2019-01-08T11:15:29.569Z,100021.56
2019-01-08T11:17:59.100Z,100017.99
2019-01-08T11:20:28.640Z,100021.69
2019-01-08T11:22:58.123Z,100013.15
2019-01-08T11:25:27.602Z,100006.77
2019-01-08T11:27:58.053Z,100006.92
2019-01-08T11:30:27.555Z,100027.57
2019-01-08T11:32:57.051Z,100045.17
2019-01-08T11:35:26.550Z,100060.21
2019-01-08T11:37:56.063Z,100056.22
2019-01-08T11:40:25.555Z,100055.95
2019-01-08T11:42:55.052Z,100062.17
2019-01-08T11:45:24.582Z,100057.68
2019-01-08T11:47:54.084Z,100046.36
2019-01-08T11:50:23.563Z,100052.95
2019-01-08T11:52:53.120Z,100048.73
2019-01-08T11:55:22.706Z,100051.42
2019-01-08T11:57:52.169Z,100056.33
2019-01-08T12:00:21.713Z,100051.56
2019-01-08T12:02:51.212Z,100060.00
2019-01-08T12:05:20.692Z,100056.99
2019-01-08T12:07:50.193Z,100060.63
2019-01-08T12:10:20.768Z,100052.97
2019-01-08T12:12:50.247Z,100047.52
2019-01-08T12:15:19.768Z,100032.95
2019-01-08T12:17:50.226Z,100035.05
2019-01-08T12:20:19.812Z,100041.77
2019-01-08T12:22:49.294Z,100038.64
2019-01-08T12:25:18.819Z,100040.27
2019-01-08T12:27:48.317Z,100043.41
2019-01-08T12:30:17.814Z,100057.55
2019-01-08T12:32:47.366Z,100060.72
2019-01-08T12:35:16.863Z,100053.06
2019-01-08T12:37:46.370Z,99979.63
2019-01-08T12:40:15.971Z,100041.58
2019-01-08T12:42:45.486Z,100043.44
2019-01-08T12:45:14.980Z,100034.28
2019-01-08T12:47:44.472Z,100027.98
2019-01-08T12:50:13.970Z,100026.60
2019-01-08T12:52:43.489Z,100034.75
2019-01-08T12:55:13.196Z,100023.32
2019-01-08T12:57:42.642Z,100040.36
2019-01-08T13:00:12.753Z,100057.72
2019-01-08T13:02:42.352Z,100053.34
2019-01-08T13:05:12.965Z,100073.84
2019-01-08T13:07:42.450Z,100084.03
2019-01-08T13:10:11.946Z,100074.44
2019-01-08T13:12:41.501Z,100070.53
2019-01-08T13:15:10.996Z,100058.20
2019-01-08T13:17:40.505Z,100059.48
2019-01-08T13:20:09.990Z,100073.88
2019-01-08T13:22:39.474Z,100064.08
2019-01-08T13:25:09.078Z,100073.86
2019-01-08T13:27:38.640Z,100076.84
2019-01-08T13:30:09.073Z,100061.62
2019-01-08T13:32:38.569Z,100066.21
2019-01-08T13:35:08.136Z,100065.08
2019-01-08T13:37:37.616Z,100055.23
2019-01-08T13:40:07.210Z,100068.16
2019-01-08T13:42:36.692Z,100049.79
2019-01-08T13:45:07.110Z,100064.35
2019-01-08T13:47:36.588Z,100064.45
2019-01-08T13:50:07.536Z,100070.90
2019-01-08T13:52:37.341Z,100089.41
2019-01-08T13:55:06.844Z,100074.30
2019-01-08T13:57:36.330Z,100067.06
2019-01-08T14:00:06.664Z,100065.21
2019-01-08T14:02:36.217Z,100059.47
2019-01-08T14:05:05.856Z,100067.48
2019-01-08T14:07:35.325Z,100065.20
2019-01-08T14:10:05.013Z,100065.11
2019-01-08T14:12:34.494Z,100071.81
2019-01-08T14:15:04.106Z,100067.46
2019-01-08T14:17:33.917Z,100062.11
2019-01-08T14:20:03.450Z,100060.04
2019-01-08T14:22:32.945Z,100046.94
2019-01-08T14:25:02.447Z,100047.20
2019-01-08T14:27:31.940Z,100043.17
2019-01-08T14:30:01.454Z,100038.32
2019-01-08T14:32:30.937Z,100031.88
2019-01-08T14:35:01.446Z,100049.56
2019-01-08T14:37:30.948Z,100057.81
2019-01-08T14:40:00.529Z,100062.93
2019-01-08T14:42:31.080Z,100066.66
2019-01-08T14:45:00.637Z,100078.47
2019-01-08T14:47:30.147Z,100076.52
2019-01-08T14:50:02.326Z,100095.42
2019-01-08T14:52:31.813Z,100096.47
2019-01-08T14:55:01.300Z,100100.30
2019-01-08T14:57:31.783Z,100106.16
2019-01-08T15:00:01.356Z,100107.41
2019-01-08T15:02:30.838Z,100107.12
2019-01-08T15:05:00.318Z,100105.44
2019-01-08T15:07:29.895Z,100098.09
2019-01-08T15:09:59.378Z,100102.08
2019-01-08T15:12:28.875Z,100098.98
2019-01-08T15:14:58.379Z,100097.27
2019-01-08T15:17:28.371Z,100083.59
2019-01-08T15:19:57.850Z,100099.28
2019-01-08T15:22:27.312Z,100109.19
2019-01-08T15:24:56.791Z,100099.63
2019-01-08T15:27:26.263Z,100110.37
2019-01-08T15:29:55.744Z,100100.42
2019-01-08T15:32:25.225Z,100104.44
2019-01-08T15:34:54.722Z,100106.31
2019-01-08T15:37:24.214Z,100103.21
2019-01-08T15:39:53.711Z,100096.79
2019-01-08T15:42:23.211Z,100115.37
2019-01-08T15:44:52.715Z,100109.28
2019-01-08T15:47:22.221Z,100105.70
2019-01-08T15:49:51.746Z,100103.62
2019-01-08T15:52:21.264Z,100111.25
2019-01-08T15:54:50.787Z,100104.82
2019-01-08T15:57:20.297Z,100098.94
2019-01-08T15:59:49.802Z,100104.80
2019-01-08T16:02:19.294Z,100102.08
2019-01-08T16:04:48.800Z,100102.67
2019-01-08T16:07:18.290Z,100102.99
2019-01-08T16:09:48.930Z,100107.83
2019-01-08T16:12:18.566Z,100102.83
2019-01-08T16:14:48.658Z,100108.49
2019-01-08T16:17:18.165Z,100104.20
2019-01-08T16:19:47.644Z,100102.45
2019-01-08T16:22:17.139Z,100106.64
2019-01-08T16:24:46.618Z,100123.75
2019-01-08T16:27:16.129Z,100106.22
2019-01-08T16:29:45.619Z,100115.58
2019-01-08T16:32:15.139Z,100135.18
2019-01-08T16:34:44.626Z,100144.68
2019-01-08T16:37:14.220Z,100147.12
2019-01-08T16:39:43.724Z,100164.44
2019-01-08T16:42:13.219Z,100158.65
2019-01-08T16:44:42.703Z,100146.88
2019-01-08T16:47:12.197Z,100154.37
2019-01-08T16:49:41.709Z,100165.71
2019-01-08T16:52:11.700Z,100174.08
2019-01-08T16:54:41.180Z,100191.13
2019-01-08T16:57:10.673Z,100192.63
2019-01-08T16:59:40.155Z,100194.16
2019-01-08T17:02:09.647Z,100190.97
2019-01-08T17:04:39.137Z,100199.30
2019-01-08T17:07:08.661Z,100205.16
2019-01-08T17:09:38.156Z,100197.13
2019-01-08T17:12:07.861Z,100191.41
2019-01-08T17:14:37.333Z,100187.30
2019-01-08T17:17:06.830Z,100204.81
2019-01-08T17:19:36.314Z,100217.08
2019-01-08T17:22:05.824Z,100223.17
2019-01-08T17:24:35.303Z,100227.62
2019-01-08T17:27:04.798Z,100225.63
2019-01-08T17:29:34.278Z,100220.01
2019-01-08T17:32:03.789Z,100218.82
2019-01-08T17:34:33.275Z,100220.64
2019-01-08T17:37:02.761Z,100212.36
2019-01-08T17:39:32.275Z,100220.72
2019-01-08T17:42:01.759Z,100232.65
2019-01-08T17:44:31.262Z,100177.61
2019-01-08T17:47:00.781Z,100228.96
2019-01-08T17:49:30.288Z,100234.38
2019-01-08T17:51:59.810Z,100237.39
2019-01-08T17:54:29.299Z,100232.13
2019-01-08T17:56:58.809Z,100231.70
2019-01-08T17:59:28.329Z,100243.83
2019-01-08T18:02:03.421Z,100250.69
2019-01-08T18:04:32.917Z,100252.73
2019-01-08T18:07:02.407Z,100250.73
2019-01-08T18:09:31.899Z,100250.77
2019-01-08T18:12:01.382Z,100247.21
2019-01-08T18:14:30.883Z,100260.83
2019-01-08T18:17:01.380Z,100254.01
2019-01-08T18:19:30.899Z,100244.60
2019-01-08T18:22:00.376Z,100242.70
2019-01-08T18:24:29.866Z,100230.02
2019-01-08T18:27:00.339Z,100238.56
2019-01-08T18:29:29.842Z,100246.70
2019-01-08T18:31:59.329Z,100243.20
2019-01-08T18:34:28.816Z,100233.33
2019-01-08T18:36:58.294Z,100243.59
2019-01-08T18:39:27.766Z,100251.47
2019-01-08T18:41:57.261Z,100252.47
2019-01-08T18:44:26.745Z,100256.50
2019-01-08T18:46:56.237Z,100253.90
2019-01-08T18:49:25.720Z,100253.55
2019-01-08T18:51:59.516Z,100269.95
2019-01-08T18:54:28.965Z,100275.76
2019-01-08T18:56:58.469Z,100269.19
2019-01-08T18:59:27.978Z,100266.05
2019-01-08T19:01:57.491Z,100271.48
2019-01-08T19:04:26.989Z,100263.80
2019-01-08T19:06:56.488Z,100262.27
2019-01-08T19:09:30.045Z,100277.62
2019-01-08T19:12:00.191Z,100257.53
2019-01-08T19:14:37.211Z,100264.40
2019-01-08T19:17:08.385Z,100281.45
2019-01-08T19:19:37.867Z,100302.59
2019-01-08T19:22:07.340Z,100294.40
2019-01-08T19:24:36.832Z,100298.55
2019-01-08T19:27:07.370Z,100259.66
2019-01-08T19:29:36.847Z,100286.55
2019-01-08T19:32:06.620Z,100285.61
2019-01-08T19:34:36.127Z,100287.92
2019-01-08T19:37:05.639Z,100285.95
2019-01-08T19:39:35.138Z,100286.86
2019-01-08T19:42:04.766Z,100293.88
2019-01-08T19:44:34.276Z,100294.61
2019-01-08T19:47:03.791Z,100303.34
2019-01-08T19:49:33.281Z,100303.19
2019-01-08T19:52:02.779Z,100301.00
2019-01-08T19:54:32.278Z,100308.39
2019-01-08T19:57:02.673Z,100306.45
2019-01-08T19:59:32.183Z,100290.78
2019-01-08T20:02:01.662Z,100313.12
2019-01-08T20:04:31.205Z,100301.73
2019-01-08T20:07:00.727Z,100307.27
2019-01-08T20:09:30.214Z,100306.41
2019-01-08T20:11:59.707Z,100306.02
2019-01-08T20:14:30.416Z,100310.00
2019-01-08T20:17:02.371Z,100321.28
2019-01-08T20:19:31.938Z,100302.97
2019-01-08T20:22:01.432Z,100308.67
2019-01-08T20:24:30.946Z,100309.92
2019-01-08T20:27:00.728Z,100323.87
2019-01-08T20:29:43.868Z,100333.20
2019-01-08T20:32:16.661Z,100337.94
2019-01-08T20:34:48.903Z,100341.55
2019-01-08T20:37:18.656Z,100338.14
2019-01-08T20:39:48.355Z,100353.94
2019-01-08T20:42:17.997Z,100358.63
2019-01-08T20:44:47.487Z,100367.66
2019-01-08T20:47:17.061Z,100367.97
2019-01-08T20:49:46.741Z,100361.91
2019-01-08T20:52:17.320Z,100367.48
2019-01-08T20:54:46.977Z,100372.78
2019-01-08T20:57:16.579Z,100365.00
2019-01-08T20:59:46.116Z,100368.23
2019-01-08T21:02:15.703Z,100372.70
2019-01-08T21:04:45.301Z,100369.25
2019-01-08T21:07:14.923Z,100374.41
2019-01-08T21:09:44.435Z,100371.09
2019-01-08T21:12:14.060Z,100377.48
2019-01-08T21:14:46.831Z,100367.20
2019-01-08T21:17:16.373Z,100367.25
2019-01-08T21:19:46.230Z,100359.05
2019-01-08T21:22:18.107Z,100351.64
2019-01-08T21:24:48.775Z,100346.34
2019-01-08T21:27:18.549Z,100341.77
2019-01-08T21:29:48.056Z,100367.91
2019-01-08T21:32:17.557Z,100361.46
2019-01-08T21:34:47.174Z,100356.37
2019-01-08T21:37:16.723Z,100358.41
2019-01-08T21:39:46.290Z,100349.28
2019-01-08T21:42:15.886Z,100346.42
2019-01-08T21:44:46.385Z,100357.56
2019-01-08T21:47:16.040Z,100353.55
2019-01-08T21:49:45.541Z,100368.14
2019-01-08T21:52:15.087Z,100381.62
2019-01-08T21:54:44.593Z,100374.38
2019-01-08T21:57:14.199Z,100375.80
2019-01-08T21:59:43.688Z,100397.85
2019-01-08T22:02:14.759Z,100397.39
2019-01-08T22:04:52.757Z,100401.11
2019-01-08T22:07:15.487Z,100398.56
2019-01-08T22:09:44.921Z,100404.64
2019-01-08T22:12:14.417Z,100394.41
2019-01-08T22:14:44.868Z,100392.17
2019-01-08T22:17:14.391Z,100397.06
2019-01-08T22:19:43.951Z,100395.33
2019-01-08T22:22:13.432Z,100402.91
2019-01-08T22:24:42.931Z,100401.48
2019-01-08T22:27:12.421Z,100407.74
2019-01-08T22:29:41.920Z,100400.31
2019-01-08T22:32:11.484Z,100404.20
2019-01-08T22:34:40.969Z,100396.73
2019-01-08T22:37:10.480Z,100394.53
2019-01-08T22:39:39.984Z,100398.48
2019-01-08T22:42:09.961Z,100404.98
2019-01-08T22:44:39.450Z,100397.45
2019-01-08T22:47:09.332Z,100405.83
2019-01-08T22:49:38.823Z,100404.94
2019-01-08T22:52:08.322Z,100399.03
2019-01-08T22:54:38.703Z,100393.79
2019-01-08T22:57:08.193Z,100389.59
2019-01-08T22:59:38.366Z,100403.58
2019-01-08T23:02:08.084Z,100410.16
2019-01-08T23:04:37.580Z,100292.92
2019-01-08T23:07:07.151Z,100402.81
2019-01-08T23:09:36.725Z,100397.70
2019-01-08T23:12:06.222Z,100398.26
2019-01-08T23:14:35.704Z,100397.60
2019-01-08T23:17:05.265Z,100391.50
2019-01-08T23:19:34.762Z,100394.33
2019-01-08T23:22:04.327Z,100393.93
2019-01-08T23:24:34.823Z,100405.55
2019-01-08T23:27:04.366Z,100416.67
2019-01-08T23:29:33.873Z,100404.16
2019-01-08T23:32:03.386Z,100413.27
2019-01-08T23:34:32.896Z,100413.36
2019-01-08T23:37:02.386Z,100423.40
2019-01-08T23:39:32.945Z,100418.50
2019-01-08T23:42:02.428Z,100424.88
2019-01-08T23:44:31.912Z,100425.13
2019-01-08T23:47:01.384Z,100420.51
2019-01-08T23:49:30.867Z,100424.45
2019-01-08T23:52:16.471Z,100418.00
2019-01-08T23:54:46.045Z,100428.42
2019-01-08T23:57:16.810Z,100434.22
2019-01-08T23:59:46.299Z,100430.13
